Time;durP1;ratioP1;P1;durP2;ratioP2;P2;SDS_P1;SDS_P2;PMS_P1;PMS_P2;Temp;Humidity;BMP_temperature;BMP_pressure;BME280_temperature;BME280_humidity;BME280_pressure;Samples;Min_cycle;Max_cycle;Signal;HPM_P1;HPM_P2
2021/06/16 00:01:15;;;;;;;4.50;3.85;;;17.50;91.20;;;;;;6198503;28;20526;-78
2021/06/16 00:04:17;;;;;;;4.82;3.60;;;17.50;91.40;;;;;;6198644;28;20096;-77
2021/06/16 00:07:19;;;;;;;5.10;4.20;;;17.40;91.50;;;;;;6199072;28;20129;-78
2021/06/16 00:10:23;;;;;;;4.80;3.55;;;17.40;91.60;;;;;;6199444;28;20140;-77
2021/06/16 00:13:27;;;;;;;5.53;3.58;;;17.40;91.70;;;;;;6198687;28;20133;-79
2021/06/16 00:16:29;;;;;;;6.05;4.00;;;17.30;91.80;;;;;;6198596;28;20046;-78
2021/06/16 00:19:31;;;;;;;4.40;4.00;;;17.20;91.90;;;;;;6197799;28;20056;-78
2021/06/16 00:22:33;;;;;;;4.43;3.40;;;17.20;92.20;;;;;;6199147;28;20085;-77
2021/06/16 00:25:36;;;;;;;4.22;3.83;;;17.10;92.20;;;;;;6197690;28;20461;-77
2021/06/16 00:28:39;;;;;;;4.05;3.63;;;17.20;92.30;;;;;;6197454;28;20511;-77
2021/06/16 00:31:41;;;;;;;4.50;3.65;;;17.20;92.50;;;;;;6198042;28;20078;-77
2021/06/16 00:34:42;;;;;;;6.00;4.18;;;17.20;92.30;;;;;;6198048;28;20141;-77
2021/06/16 00:37:44;;;;;;;6.40;3.63;;;17.20;92.10;;;;;;6194822;28;20061;-77
2021/06/16 00:40:46;;;;;;;5.13;3.60;;;17.10;92.00;;;;;;6197293;28;20093;-77
2021/06/16 00:43:50;;;;;;;3.97;3.65;;;17.20;92.10;;;;;;6191113;28;20043;-77
2021/06/16 00:46:51;;;;;;;4.00;3.30;;;17.20;92.10;;;;;;6175343;28;20473;-77
2021/06/16 00:49:53;;;;;;;6.10;3.50;;;17.20;92.00;;;;;;6173755;28;20134;-78
2021/06/16 00:52:55;;;;;;;3.53;3.22;;;17.20;91.80;;;;;;6174000;28;20050;-77
2021/06/16 00:55:57;;;;;;;5.05;3.47;;;17.10;91.80;;;;;;6173226;28;20530;-78
2021/06/16 00:59:00;;;;;;;4.63;4.22;;;17.00;92.00;;;;;;6173087;28;20115;-77
2021/06/16 01:02:03;;;;;;;4.10;3.72;;;16.80;92.00;;;;;;6174359;28;20105;-77
2021/06/16 01:05:06;;;;;;;6.78;3.83;;;16.70;92.00;;;;;;6173036;28;20078;-78
2021/06/16 01:08:09;;;;;;;3.83;3.40;;;16.60;92.20;;;;;;6173582;28;20078;-77
2021/06/16 01:11:12;;;;;;;4.18;3.88;;;16.60;92.30;;;;;;6149035;28;20062;-77
2021/06/16 01:14:22;;;;;;;4.05;3.25;;;16.50;92.50;;;;;;6174720;28;20136;-77
2021/06/16 01:17:32;;;;;;;5.78;4.43;;;16.60;92.60;;;;;;6179463;28;20572;-78
2021/06/16 01:20:36;;;;;;;5.55;4.32;;;16.60;92.60;;;;;;6180477;28;20189;-78
2021/06/16 01:24:00;;;;;;;3.97;3.30;;;16.50;92.70;;;;;;6179917;28;20074;-78
2021/06/16 01:27:04;;;;;;;7.00;4.15;;;16.50;92.90;;;;;;6179329;28;20078;-77
2021/06/16 01:30:07;;;;;;;4.22;3.83;;;16.40;93.00;;;;;;6179736;28;20057;-78
2021/06/16 01:33:12;;;;;;;3.63;2.72;;;16.40;92.90;;;;;;6179720;28;20051;-78
2021/06/16 01:36:15;;;;;;;4.70;3.80;;;16.40;92.90;;;;;;6178849;28;20189;-78
2021/06/16 01:39:20;;;;;;;4.20;3.30;;;16.50;92.90;;;;;;6181012;28;20047;-78
2021/06/16 01:42:28;;;;;;;7.60;3.85;;;16.50;92.90;;;;;;6181442;28;20054;-78
2021/06/16 01:45:32;;;;;;;5.57;3.60;;;16.50;92.90;;;;;;6189176;28;20513;-77
2021/06/16 01:48:35;;;;;;;10.35;4.28;;;16.40;93.10;;;;;;6179379;28;20055;-78
2021/06/16 01:51:38;;;;;;;3.47;3.22;;;16.30;93.20;;;;;;6179624;28;20125;-78
2021/06/16 01:54:41;;;;;;;5.97;3.83;;;16.20;93.40;;;;;;6191519;28;20145;-78
2021/06/16 01:57:46;;;;;;;5.78;4.32;;;16.10;93.60;;;;;;6204645;28;20085;-78
2021/06/16 02:00:51;;;;;;;3.75;3.42;;;16.10;93.60;;;;;;6204592;28;20081;-77
2021/06/16 02:03:54;;;;;;;3.58;3.28;;;16.10;93.60;;;;;;6204433;28;20093;-77
2021/06/16 02:07:04;;;;;;;4.35;3.95;;;16.00;93.60;;;;;;6205755;28;20042;-78
2021/06/16 02:10:08;;;;;;;5.60;4.18;;;15.90;93.80;;;;;;6205550;28;20718;-78
2021/06/16 02:13:13;;;;;;;5.57;4.00;;;15.90;93.90;;;;;;6206360;28;20078;-78
2021/06/16 02:16:18;;;;;;;3.88;3.58;;;15.90;94.00;;;;;;6206348;28;20042;-79
2021/06/16 02:19:22;;;;;;;4.25;3.85;;;15.90;94.00;;;;;;6206410;28;20097;-78
2021/06/16 02:22:26;;;;;;;16.92;3.90;;;16.00;94.20;;;;;;6206332;28;20627;-78
2021/06/16 02:25:28;;;;;;;4.43;3.88;;;16.20;94.10;;;;;;6205389;28;20050;-78
2021/06/16 02:28:32;;;;;;;4.07;3.42;;;16.40;93.60;;;;;;6206169;28;20116;-78
2021/06/16 02:31:34;;;;;;;3.67;3.38;;;16.40;93.30;;;;;;6208521;28;20062;-78
2021/06/16 02:34:36;;;;;;;4.57;3.55;;;16.50;93.10;;;;;;6207666;28;20093;-78
2021/06/16 02:37:43;;;;;;;3.88;3.53;;;16.60;93.00;;;;;;6208535;28;20046;-78
2021/06/16 02:40:45;;;;;;;5.72;5.22;;;16.70;92.80;;;;;;6209134;28;20078;-79
2021/06/16 02:43:50;;;;;;;3.75;3.05;;;16.80;92.50;;;;;;6208313;28;20050;-77
2021/06/16 02:46:55;;;;;;;3.22;2.92;;;16.90;92.20;;;;;;6208019;28;20130;-77
2021/06/16 02:49:59;;;;;;;5.38;3.60;;;16.90;92.00;;;;;;6203416;28;20198;-78
2021/06/16 02:53:05;;;;;;;8.65;6.20;;;16.80;92.20;;;;;;6204144;28;20189;-79
2021/06/16 02:56:08;;;;;;;2.92;2.60;;;16.80;92.20;;;;;;6204707;28;20125;-78
2021/06/16 02:59:13;;;;;;;4.38;3.40;;;16.80;92.20;;;;;;6204125;28;20046;-79
2021/06/16 03:02:15;;;;;;;3.30;2.58;;;16.80;92.10;;;;;;6204967;28;20193;-79
2021/06/16 03:05:22;;;;;;;4.00;3.28;;;16.80;92.10;;;;;;6205174;28;20042;-79
2021/06/16 03:08:26;;;;;;;3.75;3.08;;;16.80;91.90;;;;;;6202606;28;20134;-77
2021/06/16 03:11:31;;;;;;;4.18;3.20;;;16.70;91.90;;;;;;6201735;28;20042;-77
2021/06/16 03:14:36;;;;;;;7.07;4.00;;;16.50;92.30;;;;;;6200704;28;20054;-77
2021/06/16 03:17:39;;;;;;;3.80;3.10;;;16.40;92.40;;;;;;6199799;28;20409;-78
2021/06/16 03:20:41;;;;;;;3.72;3.08;;;16.30;92.60;;;;;;6201503;28;20093;-78
2021/06/16 03:23:45;;;;;;;3.58;2.72;;;16.20;92.80;;;;;;6202230;28;20081;-78
2021/06/16 03:26:49;;;;;;;3.33;3.03;;;16.40;92.70;;;;;;6201612;28;20062;-78
2021/06/16 03:29:54;;;;;;;4.32;2.40;;;16.50;92.30;;;;;;6201297;28;20178;-78
2021/06/16 03:32:57;;;;;;;3.92;3.45;;;16.60;92.30;;;;;;6199683;28;20050;-77
2021/06/16 03:36:00;;;;;;;9.35;4.00;;;16.70;92.10;;;;;;6199159;28;20419;-77
2021/06/16 03:39:03;;;;;;;4.10;3.60;;;16.70;92.00;;;;;;6198593;28;20153;-77
2021/06/16 03:42:07;;;;;;;6.35;3.70;;;16.80;91.80;;;;;;6199228;28;20046;-77
2021/06/16 03:45:12;;;;;;;4.05;3.25;;;16.80;91.80;;;;;;6199319;28;20089;-77
2021/06/16 03:48:16;;;;;;;4.60;3.45;;;16.80;91.90;;;;;;6199087;28;20078;-77
2021/06/16 03:51:19;;;;;;;3.45;2.85;;;16.80;91.80;;;;;;6195794;28;20236;-77
2021/06/16 03:54:22;;;;;;;5.43;3.35;;;16.80;91.60;;;;;;6198858;28;20125;-79
2021/06/16 03:57:25;;;;;;;3.33;3.00;;;16.70;91.70;;;;;;6201818;28;20397;-78
2021/06/16 04:00:28;;;;;;;5.90;2.75;;;16.70;91.80;;;;;;6202402;28;20532;-78
2021/06/16 04:03:30;;;;;;;5.28;3.63;;;16.80;91.90;;;;;;6203134;28;20046;-78
2021/06/16 04:06:32;;;;;;;3.03;2.72;;;17.00;91.70;;;;;;6202875;28;20116;-78
2021/06/16 04:09:34;;;;;;;4.43;2.92;;;17.20;91.20;;;;;;6204317;28;20054;-79
2021/06/16 04:12:36;;;;;;;3.38;3.08;;;17.40;90.90;;;;;;6203371;28;20437;-79
2021/06/16 04:15:39;;;;;;;4.55;3.60;;;17.40;90.50;;;;;;6203197;28;20121;-78
2021/06/16 04:18:43;;;;;;;4.00;3.50;;;17.30;90.60;;;;;;6204077;28;20089;-78
2021/06/16 04:21:45;;;;;;;3.65;3.30;;;17.40;90.60;;;;;;6201509;28;20136;-77
2021/06/16 04:24:47;;;;;;;3.78;3.47;;;17.40;90.50;;;;;;6192968;28;20042;-77
2021/06/16 04:27:49;;;;;;;3.42;3.13;;;17.50;90.40;;;;;;6177355;28;20536;-77
2021/06/16 04:30:52;;;;;;;4.53;4.13;;;17.60;90.30;;;;;;6173604;28;20079;-77
2021/06/16 04:33:54;;;;;;;5.97;3.55;;;17.80;90.30;;;;;;6174783;28;20137;-77
2021/06/16 04:36:56;;;;;;;5.75;3.05;;;18.10;89.90;;;;;;6173996;28;20074;-77
2021/06/16 04:39:57;;;;;;;3.50;3.20;;;18.40;89.10;;;;;;6173774;28;20058;-75
2021/06/16 04:42:59;;;;;;;4.47;3.45;;;18.70;89.10;;;;;;6173182;28;20043;-77
2021/06/16 04:46:03;;;;;;;4.53;3.60;;;18.90;88.00;;;;;;6173108;28;20141;-77
2021/06/16 04:49:05;;;;;;;5.38;3.58;;;19.10;87.60;;;;;;6174754;28;20055;-76
2021/06/16 04:52:07;;;;;;;9.70;3.50;;;19.40;86.90;;;;;;6178117;28;20118;-76
2021/06/16 04:55:11;;;;;;;3.03;2.72;;;19.70;85.60;;;;;;6178562;28;20156;-75
2021/06/16 04:58:13;;;;;;;9.95;3.40;;;20.00;84.50;;;;;;6177819;28;20549;-77
2021/06/16 05:01:16;;;;;;;2.85;2.53;;;20.30;83.80;;;;;;6178661;28;20050;-77
2021/06/16 05:04:18;;;;;;;4.95;3.50;;;20.40;83.30;;;;;;6177722;28;20042;-77
2021/06/16 05:07:20;;;;;;;4.15;3.75;;;20.60;82.40;;;;;;6177555;28;20575;-77
2021/06/16 05:10:22;;;;;;;3.38;2.75;;;20.70;82.20;;;;;;6178043;28;20043;-76
2021/06/16 05:13:25;;;;;;;4.22;3.33;;;20.90;81.20;;;;;;6179203;28;20186;-76
2021/06/16 05:16:28;;;;;;;6.05;2.55;;;21.10;79.90;;;;;;6177321;28;20066;-76
2021/06/16 05:19:30;;;;;;;2.88;2.67;;;21.30;77.50;;;;;;6177722;28;20137;-77
2021/06/16 05:22:35;;;;;;;4.60;2.85;;;21.50;76.20;;;;;;6179487;28;20050;-75
2021/06/16 05:25:37;;;;;;;5.78;2.70;;;21.90;74.50;;;;;;6178771;28;20066;-77
2021/06/16 05:28:39;;;;;;;4.10;2.90;;;22.10;74.00;;;;;;6178488;28;20054;-76
2021/06/16 05:31:42;;;;;;;3.13;2.70;;;22.20;74.50;;;;;;6177579;28;20074;-76
2021/06/16 05:34:44;;;;;;;4.38;3.17;;;22.40;70.90;;;;;;6177828;28;20074;-76
2021/06/16 05:37:47;;;;;;;5.80;3.13;;;22.50;70.00;;;;;;6177044;28;20047;-77
2021/06/16 05:40:48;;;;;;;3.25;2.65;;;22.60;68.00;;;;;;6177618;28;20532;-77
2021/06/16 05:43:50;;;;;;;4.35;2.53;;;22.70;68.70;;;;;;6177016;28;20130;-76
2021/06/16 05:46:53;;;;;;;5.88;3.83;;;22.90;67.70;;;;;;6177495;28;20121;-77
2021/06/16 05:49:55;;;;;;;5.82;3.00;;;23.00;68.00;;;;;;6176843;28;20610;-76
2021/06/16 05:52:57;;;;;;;6.72;2.97;;;23.20;66.80;;;;;;6177409;28;20412;-77
2021/06/16 05:55:59;;;;;;;2.92;2.60;;;23.40;67.60;;;;;;6176635;28;20181;-77
2021/06/16 05:59:01;;;;;;;5.68;2.72;;;23.60;66.30;;;;;;6176384;28;20132;-77
2021/06/16 06:02:04;;;;;;;5.65;3.55;;;23.70;64.30;;;;;;6176187;28;20121;-77
2021/06/16 06:05:06;;;;;;;7.00;3.03;;;23.80;63.70;;;;;;6184644;28;20128;-76
2021/06/16 06:08:08;;;;;;;3.95;3.15;;;23.90;63.10;;;;;;6176329;28;20069;-77
2021/06/16 06:11:10;;;;;;;3.03;2.75;;;23.90;64.20;;;;;;6175947;28;20050;-76
2021/06/16 06:14:12;;;;;;;6.80;2.40;;;24.00;63.30;;;;;;6175862;28;20082;-77
2021/06/16 06:17:15;;;;;;;3.33;2.38;;;24.10;62.30;;;;;;6176474;28;20520;-77
2021/06/16 06:20:17;;;;;;;7.05;2.67;;;24.20;61.90;;;;;;6175746;28;20133;-76
2021/06/16 06:23:19;;;;;;;4.40;2.85;;;24.40;60.80;;;;;;6196474;28;20138;-77
2021/06/16 06:26:21;;;;;;;6.00;3.42;;;24.50;59.90;;;;;;6199513;28;20128;-75
2021/06/16 06:29:23;;;;;;;10.30;2.67;;;24.70;59.40;;;;;;6196748;28;20078;-77
2021/06/16 06:32:26;;;;;;;3.53;3.08;;;24.60;60.30;;;;;;6199944;28;20146;-77
2021/06/16 06:35:28;;;;;;;5.47;2.47;;;24.50;60.50;;;;;;6199978;28;20512;-76
2021/06/16 06:38:30;;;;;;;3.30;2.70;;;24.50;60.70;;;;;;6199571;28;20074;-76
2021/06/16 06:41:32;;;;;;;5.03;2.90;;;24.40;60.00;;;;;;6200425;28;20057;-77
2021/06/16 06:44:34;;;;;;;2.65;2.45;;;24.40;60.00;;;;;;6199816;28;20137;-76
2021/06/16 06:47:37;;;;;;;4.57;2.78;;;24.40;60.00;;;;;;6199545;28;20137;-77
2021/06/16 06:50:39;;;;;;;3.58;2.53;;;24.50;59.20;;;;;;6199444;28;20046;-77
2021/06/16 06:53:41;;;;;;;5.05;3.30;;;24.70;59.10;;;;;;6199668;28;20097;-77
2021/06/16 06:56:43;;;;;;;3.00;2.28;;;24.70;57.70;;;;;;6199258;28;20046;-76
2021/06/16 06:59:44;;;;;;;2.58;2.15;;;24.90;57.30;;;;;;6199135;28;20082;-77
2021/06/16 07:02:48;;;;;;;5.00;2.50;;;24.90;56.80;;;;;;6199397;28;20435;-77
2021/06/16 07:05:49;;;;;;;4.80;2.72;;;25.00;56.90;;;;;;6199509;28;20058;-76
2021/06/16 07:08:51;;;;;;;4.65;3.40;;;25.10;55.60;;;;;;6199786;28;20046;-77
2021/06/16 07:11:53;;;;;;;6.30;2.67;;;25.20;55.40;;;;;;6198378;28;20132;-76
2021/06/16 07:14:55;;;;;;;8.45;3.08;;;25.40;55.80;;;;;;6198897;28;20523;-77
2021/06/16 07:17:59;;;;;;;3.10;2.63;;;25.70;55.60;;;;;;6248511;23;20066;-76
2021/06/16 07:21:00;;;;;;;3.75;3.03;;;25.80;54.90;;;;;;6223401;28;20128;-77
2021/06/16 07:24:04;;;;;;;3.05;2.40;;;25.90;54.90;;;;;;6223089;28;20050;-77
2021/06/16 07:27:07;;;;;;;4.88;2.50;;;26.10;54.50;;;;;;6222258;28;20085;-77
2021/06/16 07:30:09;;;;;;;9.13;4.45;;;26.30;54.60;;;;;;6221956;28;20120;-76
2021/06/16 07:33:12;;;;;;;2.72;2.53;;;26.40;54.30;;;;;;6223593;28;20180;-77
2021/06/16 07:36:14;;;;;;;3.05;2.72;;;26.70;54.60;;;;;;6222882;28;20081;-77
2021/06/16 07:39:16;;;;;;;2.67;2.20;;;26.80;54.10;;;;;;6222628;28;20050;-77
2021/06/16 07:42:18;;;;;;;3.10;2.15;;;26.90;53.70;;;;;;6222819;28;20069;-77
2021/06/16 07:45:20;;;;;;;6.38;2.33;;;27.00;53.20;;;;;;6223293;28;20081;-76
2021/06/16 07:48:23;;;;;;;2.78;2.20;;;27.10;53.40;;;;;;6223281;28;20038;-76
2021/06/16 07:51:25;;;;;;;7.47;3.28;;;27.10;53.00;;;;;;6223745;28;20284;-77
2021/06/16 07:54:27;;;;;;;4.13;2.80;;;27.10;52.60;;;;;;6222553;28;20526;-77
2021/06/16 07:57:29;;;;;;;4.30;2.55;;;27.00;52.20;;;;;;6222317;28;20176;-77
2021/06/16 08:00:31;;;;;;;3.97;3.67;;;27.00;52.10;;;;;;6222091;28;20522;-77
2021/06/16 08:03:35;;;;;;;3.05;2.75;;;27.00;52.80;;;;;;6222254;28;20077;-77
2021/06/16 08:06:36;;;;;;;6.57;3.45;;;27.10;52.40;;;;;;6222525;28;20120;-77
2021/06/16 08:09:40;;;;;;;5.03;2.67;;;27.40;51.70;;;;;;6221695;28;20132;-77
2021/06/16 08:12:42;;;;;;;6.40;2.65;;;27.70;51.30;;;;;;6222634;28;20060;-76
2021/06/16 08:15:44;;;;;;;5.85;3.75;;;27.70;51.10;;;;;;6222202;28;20065;-76
2021/06/16 08:18:48;;;;;;;3.95;2.60;;;27.60;50.80;;;;;;6221252;28;20100;-77
2021/06/16 08:21:50;;;;;;;4.43;3.35;;;27.60;51.30;;;;;;6221772;28;20602;-78
2021/06/16 08:24:52;;;;;;;9.00;3.30;;;27.70;50.80;;;;;;6220822;28;20049;-76
2021/06/16 08:27:54;;;;;;;7.63;3.30;;;27.90;51.00;;;;;;6221323;28;20069;-76
2021/06/16 08:30:56;;;;;;;3.05;2.70;;;28.10;50.60;;;;;;6219544;28;20074;-76
2021/06/16 08:33:59;;;;;;;5.40;3.88;;;28.30;50.00;;;;;;6221739;28;20073;-76
2021/06/16 08:37:01;;;;;;;3.40;2.95;;;28.60;50.00;;;;;;6221813;28;20042;-77
2021/06/16 08:40:03;;;;;;;5.43;2.85;;;28.80;49.00;;;;;;6221342;28;20095;-77
2021/06/16 08:43:05;;;;;;;6.45;2.50;;;28.90;48.90;;;;;;6221722;28;20104;-77
2021/06/16 08:46:09;;;;;;;5.20;2.38;;;28.90;48.70;;;;;;6221849;28;20472;-77
2021/06/16 08:49:12;;;;;;;6.97;2.95;;;28.90;49.30;;;;;;6221492;28;20088;-76
2021/06/16 08:52:15;;;;;;;5.63;3.28;;;29.20;49.00;;;;;;6222283;28;20177;-76
2021/06/16 08:55:19;;;;;;;6.18;2.97;;;29.50;47.90;;;;;;6221615;28;20132;-77
2021/06/16 08:58:21;;;;;;;7.65;2.55;;;29.70;47.80;;;;;;6221806;28;20053;-77
2021/06/16 09:01:23;;;;;;;5.63;2.92;;;29.70;47.40;;;;;;6221355;28;20530;-77
2021/06/16 09:04:47;;;;;;;3.38;2.55;;;29.90;47.10;;;;;;6221223;28;20531;-77
2021/06/16 09:07:49;;;;;;;4.90;3.50;;;30.00;47.00;;;;;;6221477;28;20048;-76
2021/06/16 09:10:53;;;;;;;3.05;2.75;;;30.20;46.10;;;;;;6221541;28;20112;-76
2021/06/16 09:14:13;;;;;;;4.45;3.22;;;30.20;45.90;;;;;;6231021;28;20106;-76
2021/06/16 09:17:19;;;;;;;6.30;3.30;;;30.30;45.60;;;;;;6221409;28;20562;-76
2021/06/16 09:20:28;;;;;;;4.53;3.08;;;30.30;45.20;;;;;;6220920;28;20125;-76
2021/06/16 09:23:30;;;;;;;4.35;3.03;;;30.30;46.20;;;;;;6221715;28;20046;-77
2021/06/16 09:26:33;;;;;;;5.40;2.67;;;30.60;45.80;;;;;;6228929;28;20140;-77
2021/06/16 09:29:35;;;;;;;6.35;3.20;;;30.80;45.30;;;;;;6238173;28;20038;-77
2021/06/16 09:32:43;;;;;;;3.85;2.97;;;30.80;45.20;;;;;;6220096;28;20050;-77
2021/06/16 09:35:49;;;;;;;5.95;3.13;;;30.80;45.50;;;;;;6223130;28;20042;-77
2021/06/16 09:38:52;;;;;;;7.63;4.03;;;30.80;45.60;;;;;;6225240;28;20515;-77
2021/06/16 09:42:00;;;;;;;4.22;2.40;;;31.00;45.20;;;;;;6236645;28;20139;-77
2021/06/16 09:45:03;;;;;;;6.32;3.17;;;31.00;45.80;;;;;;6250607;28;20050;-77
2021/06/16 09:48:23;;;;;;;6.80;3.42;;;31.20;46.20;;;;;;6249648;28;20077;-77
2021/06/16 09:51:28;;;;;;;10.77;4.05;;;31.40;46.30;;;;;;6249636;28;20077;-76
2021/06/16 09:54:38;;;;;;;4.28;3.13;;;31.40;46.30;;;;;;6250002;28;20042;-76
2021/06/16 09:57:58;;;;;;;6.85;4.22;;;31.60;46.00;;;;;;6249228;28;20045;-76
2021/06/16 10:01:01;;;;;;;6.63;4.20;;;31.70;45.90;;;;;;6250029;28;20053;-76
2021/06/16 10:04:03;;;;;;;5.88;3.53;;;31.70;46.30;;;;;;6249336;28;20052;-76
2021/06/16 10:07:20;;;;;;;7.18;4.47;;;31.80;46.50;;;;;;6249499;28;20088;-77
2021/06/16 10:10:22;;;;;;;3.43;3.00;;;32.10;46.10;;;;;;6249469;28;20139;-76
2021/06/16 10:13:25;;;;;;;11.18;3.80;;;32.30;45.30;;;;;;6241735;28;20049;-77
2021/06/16 10:16:28;;;;;;;5.93;3.08;;;32.50;44.70;;;;;;6224699;28;20523;-76
2021/06/16 10:19:30;;;;;;;4.63;3.35;;;32.90;44.30;;;;;;6224264;28;20133;-76
2021/06/16 10:22:34;;;;;;;12.40;3.65;;;33.20;43.30;;;;;;6224915;28;20107;-76
2021/06/16 10:25:35;;;;;;;9.07;3.88;;;33.50;42.80;;;;;;6224714;28;20546;-77
2021/06/16 10:28:42;;;;;;;5.50;3.30;;;33.50;42.70;;;;;;6224123;28;20120;-76
2021/06/16 10:31:44;;;;;;;7.93;4.85;;;33.50;43.00;;;;;;6222472;28;20801;-76
2021/06/16 10:35:00;;;;;;;5.10;4.38;;;33.20;43.30;;;;;;6224266;28;20052;-77
2021/06/16 10:38:12;;;;;;;3.78;3.33;;;33.20;44.10;;;;;;6223978;28;20517;-77
2021/06/16 10:41:14;;;;;;;4.50;2.92;;;33.40;43.50;;;;;;6224191;28;20061;-77
2021/06/16 10:44:19;;;;;;;7.22;4.03;;;33.60;42.80;;;;;;6224124;28;20132;-77
2021/06/16 10:47:21;;;;;;;9.60;4.68;;;33.90;42.50;;;;;;6223356;28;20041;-77
2021/06/16 10:50:43;;;;;;;10.15;4.00;;;34.20;41.70;;;;;;6223395;28;20061;-76
2021/06/16 10:54:12;;;;;;;11.43;4.22;;;34.10;41.90;;;;;;6224125;28;20137;-77
2021/06/16 10:57:15;;;;;;;5.28;3.10;;;34.20;42.40;;;;;;6223744;28;20713;-77
2021/06/16 11:00:26;;;;;;;5.13;3.35;;;34.30;41.60;;;;;;6222982;28;20058;-76
2021/06/16 11:04:02;;;;;;;6.53;4.30;;;34.60;41.70;;;;;;6223665;28;20121;-76
2021/06/16 11:07:05;;;;;;;13.68;5.10;;;34.90;41.10;;;;;;6223234;28;20096;-77
2021/06/16 11:10:09;;;;;;;10.55;4.20;;;35.10;40.70;;;;;;6223496;28;20124;-76
2021/06/16 11:13:41;;;;;;;11.30;4.05;;;35.20;40.60;;;;;;6229543;28;20124;-76
2021/06/16 11:16:45;;;;;;;9.80;4.88;;;35.20;40.80;;;;;;6247932;28;20096;-76
2021/06/16 11:19:57;;;;;;;6.07;4.63;;;35.40;39.90;;;;;;6247210;28;20053;-76
2021/06/16 11:23:00;;;;;;;9.40;4.57;;;35.50;40.40;;;;;;6247653;28;20064;-76
2021/06/16 11:26:04;;;;;;;13.90;4.97;;;35.70;39.90;;;;;;6247559;28;20275;-76
2021/06/16 11:29:06;;;;;;;15.63;3.88;;;35.90;40.20;;;;;;6247708;28;20507;-77
2021/06/16 11:32:12;;;;;;;6.57;3.95;;;36.00;40.50;;;;;;6247444;28;20076;-77
2021/06/16 11:35:37;;;;;;;8.40;4.28;;;36.00;39.70;;;;;;6247100;28;20502;-77
2021/06/16 11:38:40;;;;;;;7.20;4.13;;;36.20;39.50;;;;;;6246953;28;20065;-77
2021/06/16 11:41:45;;;;;;;8.80;5.13;;;36.20;39.90;;;;;;6247246;28;20054;-76
2021/06/16 11:44:48;;;;;;;5.32;3.80;;;36.20;39.60;;;;;;6247678;28;20522;-77
2021/06/16 11:47:54;;;;;;;5.50;3.67;;;36.10;39.20;;;;;;6246671;28;20522;-76
2021/06/16 11:50:56;;;;;;;7.72;5.20;;;36.20;39.20;;;;;;6246391;28;20045;-77
2021/06/16 11:54:19;;;;;;;7.95;3.60;;;36.20;38.40;;;;;;6247301;28;20125;-77
2021/06/16 11:57:28;;;;;;;5.72;3.17;;;36.40;37.80;;;;;;6247342;28;20128;-76
2021/06/16 12:00:30;;;;;;;3.65;2.95;;;36.50;36.10;;;;;;6246742;28;20049;-76
2021/06/16 12:03:32;;;;;;;6.38;2.50;;;36.30;35.40;;;;;;6246565;28;20510;-76
2021/06/16 12:06:34;;;;;;;5.50;2.33;;;36.30;33.30;;;;;;6246834;28;20041;-76
2021/06/16 12:09:44;;;;;;;8.25;2.50;;;;;;;;;;6246711;28;20045;-77
2021/06/16 12:12:49;;;;;;;7.32;2.65;;;36.60;33.40;;;;;;6244653;28;20073;-77
2021/06/16 12:15:51;;;;;;;5.13;2.42;;;36.80;32.50;;;;;;6222184;28;20183;-76
2021/06/16 12:18:53;;;;;;;2.78;2.28;;;36.90;32.60;;;;;;6221487;28;20116;-76
2021/06/16 12:21:58;;;;;;;5.55;2.72;;;36.90;31.60;;;;;;6222369;28;20065;-77
2021/06/16 12:25:00;;;;;;;2.20;2.00;;;36.90;31.80;;;;;;6222598;28;20160;-76
2021/06/16 12:28:03;;;;;;;4.50;2.75;;;37.00;31.40;;;;;;6221789;28;20204;-77
2021/06/16 12:31:08;;;;;;;9.50;2.55;;;36.90;31.60;;;;;;6222273;28;20131;-77
2021/06/16 12:34:19;;;;;;;3.05;2.63;;;36.80;32.40;;;;;;6221809;28;20422;-78
2021/06/16 12:37:21;;;;;;;6.03;2.75;;;36.70;32.40;;;;;;6222809;28;20184;-76
2021/06/16 12:40:32;;;;;;;7.03;3.00;;;36.50;33.10;;;;;;6221505;28;20626;-77
2021/06/16 12:43:35;;;;;;;4.18;2.80;;;36.60;33.30;;;;;;6221823;28;20128;-77
2021/06/16 12:46:59;;;;;;;4.13;2.03;;;36.60;32.90;;;;;;6221649;28;20293;-76
2021/06/16 12:50:01;;;;;;;5.82;2.45;;;36.70;32.50;;;;;;6221597;28;20073;-77
2021/06/16 12:53:14;;;;;;;5.82;2.97;;;36.70;32.90;;;;;;6222124;28;20415;-77
2021/06/16 12:56:17;;;;;;;4.10;2.33;;;36.80;32.70;;;;;;6221857;28;20124;-77
2021/06/16 12:59:32;;;;;;;5.20;2.72;;;36.80;32.20;;;;;;6217717;28;20038;-77
2021/06/16 13:02:35;;;;;;;5.43;2.63;;;36.90;31.60;;;;;;6222977;28;20037;-78
2021/06/16 13:05:37;;;;;;;4.75;2.53;;;37.10;32.30;;;;;;6223218;28;20046;-78
2021/06/16 13:08:40;;;;;;;5.60;2.08;;;37.30;31.80;;;;;;6222012;28;20093;-79
2021/06/16 13:11:42;;;;;;;4.70;2.42;;;37.50;31.60;;;;;;6225744;28;20100;-77
2021/06/16 13:14:57;;;;;;;4.43;1.90;;;37.60;31.20;;;;;;6246051;28;20164;-77
2021/06/16 13:17:59;;;;;;;4.95;2.20;;;37.70;31.00;;;;;;6251479;28;20045;-77
2021/06/16 13:21:11;;;;;;;5.68;2.25;;;37.70;31.10;;;;;;6251230;28;20138;-77
2021/06/16 13:24:13;;;;;;;4.22;2.50;;;37.70;31.40;;;;;;6250926;28;20053;-77
2021/06/16 13:27:14;;;;;;;3.00;2.15;;;37.60;30.90;;;;;;6250372;28;20068;-77
2021/06/16 13:30:28;;;;;;;11.48;2.13;;;37.80;29.50;;;;;;6250028;28;20124;-77
2021/06/16 13:33:32;;;;;;;6.63;1.70;;;37.80;29.80;;;;;;6251237;28;20049;-77
2021/06/16 13:36:34;;;;;;;2.58;1.83;;;37.80;30.30;;;;;;6250695;28;20080;-77
2021/06/16 13:39:36;;;;;;;3.08;1.88;;;37.80;29.70;;;;;;6250214;28;20091;-77
2021/06/16 13:42:38;;;;;;;2.35;1.50;;;38.00;29.70;;;;;;6250200;28;20485;-77
2021/06/16 13:45:41;;;;;;;2.17;1.92;;;38.00;29.90;;;;;;6250469;28;20053;-77
2021/06/16 13:48:43;;;;;;;3.22;2.20;;;38.00;29.60;;;;;;6250888;28;20091;-77
2021/06/16 13:51:45;;;;;;;5.57;1.95;;;38.00;29.50;;;;;;6249947;28;20048;-77
2021/06/16 13:54:47;;;;;;;4.47;1.83;;;38.00;29.30;;;;;;6250943;28;20083;-77
2021/06/16 13:57:49;;;;;;;5.50;1.85;;;37.90;29.30;;;;;;6250446;28;20152;-77
2021/06/16 14:00:52;;;;;;;1.52;1.42;;;37.80;29.30;;;;;;6218932;28;20510;-77
2021/06/16 14:03:54;;;;;;;4.85;1.40;;;37.80;29.00;;;;;;6225521;28;20549;-77
2021/06/16 14:06:56;;;;;;;2.90;1.67;;;37.90;28.70;;;;;;6225334;28;20096;-77
2021/06/16 14:09:58;;;;;;;5.85;1.50;;;37.90;28.80;;;;;;6224893;28;20129;-77
2021/06/16 14:13:01;;;;;;;4.55;2.22;;;38.00;28.90;;;;;;6225323;28;20054;-77
2021/06/16 14:16:05;;;;;;;10.07;1.83;;;37.90;29.00;;;;;;6225007;28;20420;-77
2021/06/16 14:19:09;;;;;;;4.75;1.60;;;37.90;28.90;;;;;;6224363;28;20080;-77
2021/06/16 14:22:12;;;;;;;2.17;1.50;;;37.90;28.40;;;;;;6224796;28;20095;-77
2021/06/16 14:25:16;;;;;;;2.35;1.83;;;37.90;28.20;;;;;;6225109;28;20408;-77
2021/06/16 14:28:17;;;;;;;2.85;1.75;;;37.80;28.60;;;;;;6224330;28;20141;-77
2021/06/16 14:31:21;;;;;;;2.75;1.90;;;37.80;28.40;;;;;;6224061;28;20503;-77
2021/06/16 14:34:22;;;;;;;2.67;2.15;;;37.80;29.00;;;;;;6224241;28;20195;-77
2021/06/16 14:37:24;;;;;;;3.78;2.05;;;37.90;28.40;;;;;;6224596;28;20129;-77
2021/06/16 14:40:26;;;;;;;12.55;2.13;;;37.80;28.40;;;;;;6223817;28;20128;-77
2021/06/16 14:43:28;;;;;;;1.55;1.27;;;37.80;28.60;;;;;;6224001;28;20077;-77
2021/06/16 14:46:31;;;;;;;5.80;1.52;;;37.70;28.80;;;;;;6224544;28;20165;-76
2021/06/16 14:49:33;;;;;;;7.43;1.70;;;37.60;29.10;;;;;;6223817;28;20663;-77
2021/06/16 14:52:36;;;;;;;2.25;1.75;;;37.50;29.30;;;;;;6224102;28;20133;-76
2021/06/16 14:55:38;;;;;;;2.85;1.65;;;37.50;29.60;;;;;;6224053;28;20072;-76
2021/06/16 14:58:40;;;;;;;6.28;1.60;;;37.40;29.20;;;;;;6223352;28;20104;-76
2021/06/16 15:01:43;;;;;;;4.00;1.52;;;37.30;29.50;;;;;;6222247;28;20175;-76
2021/06/16 15:04:45;;;;;;;1.83;1.48;;;37.40;29.80;;;;;;6223982;28;20141;-76
2021/06/16 15:07:47;;;;;;;2.35;1.85;;;37.30;29.10;;;;;;6223796;28;20042;-76
2021/06/16 15:10:49;;;;;;;4.43;2.38;;;37.30;29.40;;;;;;6223170;28;20128;-76
2021/06/16 15:13:51;;;;;;;2.38;1.77;;;37.30;29.20;;;;;;6234975;28;20077;-76
2021/06/16 15:16:55;;;;;;;5.60;1.80;;;37.30;29.40;;;;;;6248026;28;20056;-76
2021/06/16 15:19:56;;;;;;;5.57;1.40;;;37.40;29.30;;;;;;6247109;28;20103;-76
2021/06/16 15:22:58;;;;;;;2.72;1.92;;;37.30;29.40;;;;;;6247459;28;20046;-76
2021/06/16 15:26:00;;;;;;;3.00;1.70;;;37.30;29.20;;;;;;6247574;28;20503;-76
2021/06/16 15:29:02;;;;;;;3.80;1.70;;;37.20;29.60;;;;;;6247507;28;20410;-76
2021/06/16 15:32:06;;;;;;;6.07;1.77;;;37.20;29.70;;;;;;6247329;28;20115;-76
2021/06/16 15:35:09;;;;;;;6.60;1.90;;;37.10;29.90;;;;;;6246791;28;20430;-76
2021/06/16 15:38:15;;;;;;;2.38;1.88;;;37.10;30.00;;;;;;6247427;28;20045;-76
2021/06/16 15:41:19;;;;;;;2.72;1.63;;;37.20;30.10;;;;;;6248934;28;20136;-76
2021/06/16 15:44:21;;;;;;;5.60;2.03;;;37.30;29.80;;;;;;6247835;28;20041;-76
2021/06/16 15:47:25;;;;;;;2.97;2.00;;;37.20;29.60;;;;;;6247095;28;20126;-76
2021/06/16 15:50:27;;;;;;;3.38;2.13;;;37.10;30.00;;;;;;6246762;28;20041;-76
2021/06/16 15:53:29;;;;;;;1.90;1.70;;;37.10;30.50;;;;;;6247611;28;20056;-76
2021/06/16 15:56:31;;;;;;;4.13;2.33;;;37.10;30.40;;;;;;6247193;28;20092;-76